createdAt,value
2019-03-11T00:00:31.765Z,31.30
2019-03-11T00:03:02.220Z,27.03
2019-03-11T00:05:32.623Z,25.50
2019-03-11T00:08:03.087Z,29.37
2019-03-11T00:10:33.526Z,19.93
2019-03-11T00:13:04.025Z,30.63
2019-03-11T00:15:34.427Z,25.03
2019-03-11T00:18:04.910Z,22.03
2019-03-11T00:20:35.324Z,25.90
2019-03-11T00:23:05.796Z,14.83
2019-03-11T00:25:36.114Z,16.17
2019-03-11T00:28:06.492Z,21.87
2019-03-11T00:30:36.805Z,16.43
2019-03-11T00:33:07.160Z,16.33
2019-03-11T00:35:37.458Z,13.43
2019-03-11T00:38:07.770Z,16.47
2019-03-11T00:40:38.209Z,14.47
2019-03-11T00:43:08.518Z,13.33
2019-03-11T00:45:38.878Z,16.20
2019-03-11T00:48:09.168Z,16.67
2019-03-11T00:50:39.513Z,11.57
2019-03-11T00:53:09.792Z,12.20
2019-03-11T00:55:40.137Z,10.90
2019-03-11T00:58:10.357Z,8.90
2019-03-11T01:00:40.921Z,10.80
2019-03-11T01:03:11.221Z,11.17
2019-03-11T01:05:41.676Z,12.10
2019-03-11T01:08:11.967Z,12.70
2019-03-11T01:10:42.312Z,9.13
2019-03-11T01:13:12.626Z,10.07
2019-03-11T01:15:42.998Z,11.63
2019-03-11T01:18:13.286Z,13.20
2019-03-11T01:20:43.633Z,17.53
2019-03-11T01:23:13.934Z,16.17
2019-03-11T01:25:44.282Z,15.47
2019-03-11T01:28:14.570Z,22.47
2019-03-11T01:30:44.930Z,21.57
2019-03-11T01:33:15.308Z,24.00
2019-03-11T01:35:45.752Z,26.87
2019-03-11T01:38:16.150Z,33.47
2019-03-11T01:40:46.613Z,31.03
2019-03-11T01:43:17.017Z,26.90
2019-03-11T01:45:47.485Z,34.97
2019-03-11T01:48:17.873Z,34.90
2019-03-11T01:50:48.316Z,25.13
2019-03-11T01:53:18.723Z,32.87
2019-03-11T01:55:49.198Z,30.60
2019-03-11T01:58:19.592Z,30.10
2019-03-11T02:00:50.068Z,27.80
2019-03-11T02:03:20.490Z,26.83
2019-03-11T02:05:50.938Z,29.33
2019-03-11T02:08:21.354Z,27.77
2019-03-11T02:10:51.826Z,28.93
2019-03-11T02:13:22.254Z,24.60
2019-03-11T02:15:52.699Z,25.03
2019-03-11T02:18:23.105Z,22.87
2019-03-11T02:20:53.576Z,25.60
2019-03-11T02:23:23.983Z,23.70
2019-03-11T02:25:54.447Z,27.37
2019-03-11T02:28:24.860Z,24.20
2019-03-11T02:30:55.328Z,23.57
2019-03-11T02:33:25.722Z,26.17
2019-03-11T02:35:56.226Z,19.63
2019-03-11T02:38:26.537Z,16.70
2019-03-11T02:40:56.990Z,16.10
2019-03-11T02:43:27.282Z,19.97
2019-03-11T02:45:57.715Z,14.70
2019-03-11T02:48:28.008Z,14.63
2019-03-11T02:50:58.367Z,13.13
2019-03-11T02:53:28.662Z,13.20
2019-03-11T02:55:59.039Z,14.90
2019-03-11T02:58:29.331Z,12.97
2019-03-11T03:01:08.679Z,15.57
2019-03-11T03:03:40.550Z,21.27
2019-03-11T03:06:15.598Z,21.73
2019-03-11T03:08:46.088Z,22.10
2019-03-11T03:11:16.538Z,19.53
2019-03-11T03:13:46.948Z,23.37
2019-03-11T03:16:17.378Z,30.83
2019-03-11T03:18:47.783Z,20.93
2019-03-11T03:21:18.213Z,16.23
2019-03-11T03:23:48.500Z,18.67
2019-03-11T03:26:18.861Z,23.33
2019-03-11T03:28:49.169Z,15.10
2019-03-11T03:31:19.488Z,15.07
2019-03-11T03:33:49.805Z,14.90
2019-03-11T03:36:20.134Z,9.00
2019-03-11T03:38:50.446Z,11.27
2019-03-11T03:41:20.897Z,9.70
2019-03-11T03:43:51.110Z,9.33
2019-03-11T03:46:21.460Z,19.37
2019-03-11T03:48:51.771Z,15.70
2019-03-11T03:51:22.240Z,11.57
2019-03-11T03:53:52.520Z,8.80
2019-03-11T03:56:22.843Z,9.33
2019-03-11T03:58:53.118Z,12.77
2019-03-11T04:01:23.466Z,7.97
2019-03-11T04:03:53.775Z,14.00
2019-03-11T04:06:24.133Z,20.20
2019-03-11T04:08:54.455Z,9.53
2019-03-11T04:11:24.808Z,13.60
2019-03-11T04:13:55.099Z,14.53
2019-03-11T04:16:25.524Z,12.83
2019-03-11T04:18:56.690Z,10.57
2019-03-11T04:21:27.035Z,15.00
2019-03-11T04:23:57.331Z,18.40
2019-03-11T04:26:30.503Z,13.63
2019-03-11T04:29:00.822Z,24.73
2019-03-11T04:31:31.157Z,18.07
2019-03-11T04:34:01.485Z,13.03
2019-03-11T04:36:31.849Z,18.33
2019-03-11T04:39:02.149Z,18.63
2019-03-11T04:41:32.599Z,24.13
2019-03-11T04:44:02.894Z,31.07
2019-03-11T04:46:33.341Z,25.33
2019-03-11T04:49:03.646Z,31.77
2019-03-11T04:51:33.996Z,21.30
2019-03-11T04:54:04.289Z,16.67
2019-03-11T04:56:34.654Z,21.20
2019-03-11T04:59:12.856Z,19.40
2019-03-11T05:01:43.204Z,16.70
2019-03-11T05:04:13.492Z,16.00
2019-03-11T05:06:43.817Z,14.23
2019-03-11T05:09:14.093Z,22.97
2019-03-11T05:11:44.436Z,16.77
2019-03-11T05:14:14.754Z,15.53
2019-03-11T05:16:45.106Z,15.53
2019-03-11T05:19:15.385Z,18.60
2019-03-11T05:21:45.740Z,13.43
2019-03-11T05:24:16.041Z,11.53
2019-03-11T05:26:47.949Z,9.97
2019-03-11T05:29:18.197Z,8.87
2019-03-11T05:31:48.545Z,13.87
2019-03-11T05:34:18.843Z,9.97
2019-03-11T05:36:49.176Z,13.30
2019-03-11T05:39:19.469Z,14.07
2019-03-11T05:41:50.337Z,19.10
2019-03-11T05:44:20.660Z,15.20
2019-03-11T05:46:50.999Z,21.37
2019-03-11T05:49:21.305Z,14.83
2019-03-11T05:51:51.888Z,15.57
2019-03-11T05:54:22.189Z,15.40
2019-03-11T05:56:52.557Z,13.80
2019-03-11T05:59:22.853Z,26.13
2019-03-11T06:01:53.216Z,14.67
2019-03-11T06:04:23.542Z,18.83
2019-03-11T06:06:53.885Z,23.43
2019-03-11T06:09:24.184Z,23.67
2019-03-11T06:11:54.794Z,18.43
2019-03-11T06:14:25.097Z,16.07
2019-03-11T06:16:55.476Z,14.90
2019-03-11T06:19:25.797Z,29.17
2019-03-11T06:21:57.725Z,29.77
2019-03-11T06:24:30.485Z,27.40
2019-03-11T06:27:00.127Z,33.80
2019-03-11T06:29:31.030Z,22.67
2019-03-11T06:32:01.482Z,18.03
2019-03-11T06:34:31.819Z,11.87
2019-03-11T06:37:02.186Z,14.47
2019-03-11T06:39:32.493Z,18.97
2019-03-11T06:42:03.275Z,16.67
2019-03-11T06:44:33.597Z,21.90
2019-03-11T06:47:04.059Z,23.93
2019-03-11T06:49:34.388Z,16.20
2019-03-11T06:52:04.742Z,16.40
2019-03-11T06:54:35.073Z,15.53
2019-03-11T06:57:05.432Z,11.80
2019-03-11T06:59:35.761Z,9.73
2019-03-11T07:02:06.109Z,13.27
2019-03-11T07:04:36.421Z,18.57
2019-03-11T07:07:06.816Z,18.73
2019-03-11T07:09:37.171Z,19.67
2019-03-11T07:12:08.825Z,13.87
2019-03-11T07:14:39.158Z,13.27
2019-03-11T07:17:09.497Z,13.97
2019-03-11T07:19:39.797Z,13.47
2019-03-11T07:22:10.155Z,15.57
2019-03-11T07:24:40.444Z,17.50
2019-03-11T07:27:10.730Z,11.47
2019-03-11T07:29:41.047Z,13.70
2019-03-11T07:32:11.441Z,19.53
2019-03-11T07:34:41.706Z,12.40
2019-03-11T07:37:12.164Z,13.63
2019-03-11T07:39:42.411Z,15.57
2019-03-11T07:42:12.821Z,18.53
2019-03-11T07:44:43.111Z,23.10
2019-03-11T07:47:13.445Z,16.73
2019-03-11T07:49:43.765Z,19.20
2019-03-11T07:52:14.099Z,21.67
2019-03-11T07:54:44.355Z,19.87
2019-03-11T07:57:14.717Z,23.90
2019-03-11T07:59:45.020Z,21.07
2019-03-11T08:02:15.320Z,21.43
2019-03-11T08:04:45.605Z,19.70
2019-03-11T08:07:15.939Z,14.37
2019-03-11T08:09:46.343Z,14.73
2019-03-11T08:12:16.837Z,27.40
2019-03-11T08:14:47.138Z,19.20
2019-03-11T08:17:17.467Z,15.20
2019-03-11T08:19:47.805Z,16.43
2019-03-11T08:22:18.769Z,18.63
2019-03-11T08:24:49.136Z,13.67
2019-03-11T08:27:19.560Z,18.50
2019-03-11T08:29:49.949Z,18.23
2019-03-11T08:32:20.396Z,30.77
2019-03-11T08:34:50.916Z,14.67
2019-03-11T08:37:27.008Z,15.03
2019-03-11T08:39:54.495Z,19.32
2019-03-11T08:42:24.975Z,12.53
2019-03-11T08:44:55.285Z,20.47
2019-03-11T08:47:25.651Z,24.57
2019-03-11T08:49:55.956Z,29.23
2019-03-11T08:52:26.434Z,22.17
2019-03-11T08:54:57.265Z,13.87
2019-03-11T08:57:27.843Z,18.30
2019-03-11T08:59:58.358Z,20.00
2019-03-11T09:02:31.019Z,17.60
2019-03-11T09:05:01.354Z,17.70
2019-03-11T09:07:31.738Z,23.10
2019-03-11T09:10:02.214Z,39.90
2019-03-11T09:12:32.802Z,12.57
2019-03-11T09:15:03.733Z,10.33
2019-03-11T09:17:35.971Z,12.87
2019-03-11T09:20:09.033Z,22.93
2019-03-11T09:22:43.479Z,57.07
2019-03-11T09:25:23.304Z,58.00
2019-03-11T09:27:54.923Z,68.13
2019-03-11T09:30:25.877Z,37.13
2019-03-11T09:32:56.497Z,49.57
2019-03-11T09:35:26.946Z,69.47
2019-03-11T09:37:57.388Z,25.27
2019-03-11T09:40:27.776Z,21.77
2019-03-11T09:43:17.523Z,23.57
2019-03-11T09:45:57.464Z,21.20
2019-03-11T09:48:58.373Z,19.50
2019-03-11T09:51:49.986Z,25.40
2019-03-11T09:54:37.573Z,27.20
2019-03-11T10:00:43.008Z,12.13
2019-03-11T10:03:13.343Z,17.90
2019-03-11T10:05:43.837Z,27.00
2019-03-11T10:08:14.282Z,15.10
2019-03-11T10:10:44.782Z,26.43
2019-03-11T10:13:15.172Z,24.93
2019-03-11T10:15:45.646Z,17.70
2019-03-11T10:18:16.441Z,20.03
2019-03-11T10:20:46.931Z,22.57
2019-03-11T10:23:17.364Z,17.57
2019-03-11T10:25:47.797Z,15.07
2019-03-11T10:28:18.553Z,14.37
2019-03-11T10:30:53.455Z,19.73
2019-03-11T10:33:23.855Z,18.10
2019-03-11T10:35:54.310Z,13.40
2019-03-11T10:38:24.780Z,23.37
2019-03-11T10:40:55.514Z,16.27
2019-03-11T10:43:26.334Z,12.20
2019-03-11T10:45:56.772Z,12.43
2019-03-11T10:48:36.687Z,15.70
2019-03-11T10:50:59.482Z,23.67
2019-03-11T10:53:30.291Z,18.20
2019-03-11T10:56:00.859Z,15.60
2019-03-11T10:58:33.029Z,16.77
2019-03-11T11:01:09.753Z,23.73
2019-03-11T11:03:49.336Z,17.67
2019-03-11T11:06:22.976Z,23.13
2019-03-11T11:08:53.515Z,24.57
2019-03-11T11:11:24.043Z,18.93
2019-03-11T11:13:54.612Z,16.63
2019-03-11T11:16:26.195Z,19.47
2019-03-11T11:19:13.747Z,38.47
2019-03-11T11:21:41.015Z,20.77
2019-03-11T11:24:12.177Z,29.77
2019-03-11T11:26:43.442Z,21.23
2019-03-11T11:29:13.982Z,15.20
2019-03-11T11:31:44.582Z,13.30
2019-03-11T11:34:25.739Z,16.97
2019-03-11T11:36:56.251Z,18.93
2019-03-11T11:39:26.824Z,15.87
2019-03-11T11:41:57.316Z,18.03
2019-03-11T11:44:28.898Z,12.50
2019-03-11T11:46:59.337Z,15.27
2019-03-11T11:49:29.832Z,18.30
2019-03-11T11:52:00.255Z,17.63
2019-03-11T11:54:30.634Z,13.70
2019-03-11T11:57:01.071Z,12.03
2019-03-11T11:59:33.638Z,10.20
2019-03-11T12:02:04.436Z,13.57
2019-03-11T12:04:35.066Z,23.60
2019-03-11T12:07:05.596Z,23.13
2019-03-11T12:09:36.124Z,17.33
2019-03-11T12:12:06.587Z,18.30
2019-03-11T12:14:37.103Z,29.50
2019-03-11T12:17:07.538Z,21.90
2019-03-11T12:19:38.031Z,7.83
2019-03-11T12:22:08.354Z,11.70
2019-03-11T12:24:39.818Z,13.33
2019-03-11T12:27:10.557Z,7.63
2019-03-11T12:29:43.488Z,9.67
2019-03-11T12:32:17.440Z,8.10
2019-03-11T12:34:47.854Z,8.80
2019-03-11T12:37:18.230Z,12.23
2019-03-11T12:39:49.655Z,10.87
2019-03-11T12:42:29.886Z,7.27
2019-03-11T12:45:05.067Z,12.37
2019-03-11T12:47:40.899Z,11.20
2019-03-11T12:50:26.880Z,8.47
2019-03-11T12:53:00.139Z,9.80
2019-03-11T12:55:45.879Z,20.37
2019-03-11T12:58:16.427Z,7.37
2019-03-11T13:00:46.822Z,9.25
2019-03-11T13:03:17.279Z,12.53
2019-03-11T13:05:47.791Z,4.30
2019-03-11T13:08:18.329Z,5.63
2019-03-11T13:10:48.691Z,6.67
2019-03-11T13:13:19.364Z,11.43
2019-03-11T13:15:51.567Z,7.73
2019-03-11T13:18:32.989Z,12.73
2019-03-11T13:21:14.950Z,10.67
2019-03-11T13:23:45.461Z,8.40
2019-03-11T13:26:15.856Z,6.97
2019-03-11T13:28:47.772Z,8.63
2019-03-11T13:31:18.638Z,3.93
2019-03-11T13:33:50.709Z,8.60
2019-03-11T13:36:21.100Z,7.53
2019-03-11T13:38:51.428Z,13.80
2019-03-11T13:41:23.065Z,10.63
2019-03-11T13:43:57.195Z,9.53
2019-03-11T13:46:31.883Z,8.37
2019-03-11T13:49:09.888Z,12.27
2019-03-11T13:51:45.008Z,5.23
2019-03-11T13:54:16.920Z,8.30
2019-03-11T13:56:47.268Z,5.33
2019-03-11T13:59:18.926Z,5.07
2019-03-11T14:01:49.283Z,5.03
2019-03-11T14:04:19.577Z,6.33
2019-03-11T14:06:49.953Z,5.33
2019-03-11T14:09:21.998Z,11.07
2019-03-11T14:11:52.533Z,9.40
2019-03-11T14:14:23.186Z,5.80
2019-03-11T14:16:57.955Z,20.03
2019-03-11T14:19:30.084Z,8.63
2019-03-11T14:22:02.157Z,6.13
2019-03-11T14:24:32.992Z,33.27
2019-03-11T14:27:03.851Z,5.00
2019-03-11T14:29:34.191Z,3.97
2019-03-11T14:32:05.169Z,5.73
2019-03-11T14:34:35.548Z,9.83
2019-03-11T14:37:05.919Z,5.62
2019-03-11T14:39:36.219Z,5.60
2019-03-11T14:42:06.586Z,7.03
2019-03-11T14:44:36.896Z,7.47
2019-03-11T14:47:08.251Z,2.77
2019-03-11T14:49:40.146Z,8.60
2019-03-11T14:52:11.978Z,5.53
2019-03-11T14:54:42.387Z,5.07
2019-03-11T14:57:13.064Z,16.07
2019-03-11T14:59:43.359Z,8.67
2019-03-11T15:02:13.745Z,16.97
2019-03-11T15:04:44.249Z,9.10
2019-03-11T15:07:14.624Z,13.50
2019-03-11T15:09:51.397Z,4.13
2019-03-11T15:12:18.296Z,4.07
2019-03-11T15:14:48.651Z,11.83
2019-03-11T15:17:19.010Z,5.53
2019-03-11T15:19:49.410Z,10.60
2019-03-11T15:22:22.186Z,25.47
2019-03-11T15:24:52.008Z,24.93
2019-03-11T15:27:22.490Z,22.23
2019-03-11T15:29:52.883Z,20.13
2019-03-11T15:32:24.247Z,24.00
2019-03-11T15:34:54.557Z,17.70
2019-03-11T15:37:24.952Z,18.93
2019-03-11T15:39:55.355Z,19.27
2019-03-11T15:42:25.771Z,11.23
2019-03-11T15:44:56.122Z,11.17
2019-03-11T15:47:27.464Z,11.27
2019-03-11T15:49:57.792Z,11.60
2019-03-11T15:52:28.289Z,9.67
2019-03-11T15:54:58.644Z,8.23
2019-03-11T15:57:38.754Z,3.30
2019-03-11T16:00:01.124Z,5.33
2019-03-11T16:02:31.579Z,4.87
2019-03-11T16:05:01.930Z,7.47
2019-03-11T16:07:32.329Z,17.03
2019-03-11T16:10:02.656Z,4.00
2019-03-11T16:12:33.091Z,2.97
2019-03-11T16:15:03.430Z,8.03
2019-03-11T16:17:33.792Z,13.47
2019-03-11T16:20:05.576Z,6.47
2019-03-11T16:22:36.518Z,3.43
2019-03-11T16:25:09.349Z,5.43
2019-03-11T16:27:39.764Z,19.07
2019-03-11T16:30:18.973Z,7.13
2019-03-11T16:32:59.121Z,4.67
2019-03-11T16:35:22.885Z,4.03
2019-03-11T16:37:53.355Z,11.43
2019-03-11T16:40:23.683Z,6.77
2019-03-11T16:42:53.973Z,8.63
2019-03-11T16:45:24.386Z,6.50
2019-03-11T16:47:55.700Z,8.03
2019-03-11T16:50:27.140Z,9.07
2019-03-11T16:52:57.529Z,5.77
2019-03-11T16:55:29.423Z,4.97
2019-03-11T16:57:59.797Z,7.27
2019-03-11T17:00:31.790Z,6.37
2019-03-11T17:03:02.190Z,5.80
2019-03-11T17:05:32.541Z,11.73
2019-03-11T17:08:02.943Z,6.17
2019-03-11T17:10:33.265Z,7.50
2019-03-11T17:13:03.767Z,11.23
2019-03-11T17:15:34.214Z,17.70
2019-03-11T17:18:04.591Z,14.17
2019-03-11T17:20:34.930Z,7.13
2019-03-11T17:23:05.420Z,8.77
2019-03-11T17:25:35.787Z,20.93
2019-03-11T17:28:06.215Z,9.17
2019-03-11T17:30:36.574Z,17.07
2019-03-11T17:33:06.955Z,14.83
2019-03-11T17:35:37.826Z,19.40
2019-03-11T17:38:08.308Z,17.53
2019-03-11T17:40:38.882Z,20.43
2019-03-11T17:43:09.314Z,14.60
2019-03-11T17:45:39.689Z,7.07
2019-03-11T17:48:11.075Z,11.20
2019-03-11T17:50:41.490Z,7.33
2019-03-11T17:53:19.813Z,7.03
2019-03-11T17:55:44.229Z,7.13
2019-03-11T17:58:14.635Z,5.43
2019-03-11T18:00:55.130Z,8.37
2019-03-11T18:03:18.511Z,29.83
2019-03-11T18:05:48.867Z,12.67
2019-03-11T18:08:19.290Z,16.50
2019-03-11T18:10:49.669Z,13.33
2019-03-11T18:13:20.075Z,18.73
2019-03-11T18:15:50.438Z,8.60
2019-03-11T18:18:20.842Z,9.50
2019-03-11T18:20:51.213Z,9.70
2019-03-11T18:23:21.652Z,8.70
2019-03-11T18:25:52.036Z,7.07
2019-03-11T18:28:22.419Z,7.73
2019-03-11T18:30:52.855Z,11.03
2019-03-11T18:33:23.297Z,20.07
2019-03-11T18:35:53.633Z,54.87
2019-03-11T18:38:24.168Z,47.70
2019-03-11T18:40:54.711Z,23.43
2019-03-11T18:43:25.224Z,23.07
2019-03-11T18:45:55.676Z,16.13
2019-03-11T18:48:26.286Z,25.40
2019-03-11T18:50:56.767Z,32.17
2019-03-11T18:53:27.385Z,18.73
2019-03-11T18:55:57.820Z,20.77
2019-03-11T18:58:28.242Z,10.93
2019-03-11T19:00:58.653Z,11.53
2019-03-11T19:03:29.218Z,4.83
2019-03-11T19:05:59.712Z,7.00
2019-03-11T19:08:30.174Z,9.60
2019-03-11T19:11:00.687Z,8.97
2019-03-11T19:13:31.171Z,8.97
2019-03-11T19:16:01.790Z,8.17
2019-03-11T19:18:32.262Z,7.90
2019-03-11T19:21:02.685Z,9.97
2019-03-11T19:23:33.185Z,16.03
2019-03-11T19:26:03.559Z,22.50
2019-03-11T19:28:34.027Z,21.03
2019-03-11T19:31:04.566Z,34.77
2019-03-11T19:33:35.141Z,24.03
2019-03-11T19:36:05.688Z,26.17
2019-03-11T19:38:36.213Z,37.23
2019-03-11T19:41:06.718Z,28.50
2019-03-11T19:43:37.261Z,27.60
2019-03-11T19:46:07.768Z,20.90
2019-03-11T19:48:39.301Z,14.13
2019-03-11T19:51:09.678Z,14.77
2019-03-11T19:53:40.078Z,9.90
2019-03-11T19:56:10.496Z,14.00
2019-03-11T19:58:40.927Z,13.97
2019-03-11T20:01:11.351Z,7.47
2019-03-11T20:03:41.871Z,8.67
2019-03-11T20:06:12.278Z,6.43
2019-03-11T20:08:42.633Z,3.93
2019-03-11T20:11:13.073Z,6.30
2019-03-11T20:13:43.522Z,6.47
2019-03-11T20:16:13.965Z,4.93
2019-03-11T20:18:44.564Z,5.27
2019-03-11T20:21:16.394Z,5.30
2019-03-11T20:23:46.801Z,5.87
2019-03-11T20:26:18.647Z,3.97
2019-03-11T20:28:49.416Z,3.67
2019-03-11T20:31:19.796Z,4.73
2019-03-11T20:33:50.258Z,7.50
2019-03-11T20:36:21.594Z,5.30
2019-03-11T20:38:52.108Z,7.33
2019-03-11T20:41:22.532Z,12.03
2019-03-11T20:43:52.931Z,8.87
2019-03-11T20:46:23.259Z,15.60
2019-03-11T20:48:53.864Z,41.83
2019-03-11T20:51:24.304Z,8.00
2019-03-11T20:53:54.739Z,6.50
2019-03-11T20:56:25.174Z,7.60
2019-03-11T20:58:55.540Z,9.67
2019-03-11T21:01:25.842Z,9.17
2019-03-11T21:03:56.281Z,8.27
2019-03-11T21:06:26.625Z,10.60
2019-03-11T21:08:57.027Z,6.43
2019-03-11T21:11:27.455Z,6.20
2019-03-11T21:13:57.882Z,4.30
2019-03-11T21:16:28.205Z,5.90
2019-03-11T21:18:58.694Z,3.67
2019-03-11T21:21:29.198Z,4.20
2019-03-11T21:24:02.209Z,11.20
2019-03-11T21:26:31.684Z,5.33
2019-03-11T21:29:02.380Z,3.77
2019-03-11T21:31:32.872Z,4.47
2019-03-11T21:34:03.347Z,7.63
2019-03-11T21:36:33.801Z,11.90
2019-03-11T21:39:05.372Z,14.37
2019-03-11T21:41:35.803Z,10.60
2019-03-11T21:44:06.206Z,27.60
2019-03-11T21:46:36.701Z,17.60
2019-03-11T21:49:08.331Z,16.20
2019-03-11T21:51:38.882Z,11.97
2019-03-11T21:54:09.425Z,18.33
2019-03-11T21:56:39.880Z,15.47
2019-03-11T21:59:10.726Z,14.07
2019-03-11T22:01:41.310Z,12.03
2019-03-11T22:04:11.809Z,16.77
2019-03-11T22:06:42.274Z,11.97
2019-03-11T22:09:12.750Z,10.00
2019-03-11T22:11:43.255Z,10.17
2019-03-11T22:14:13.783Z,6.43
2019-03-11T22:16:44.159Z,3.93
2019-03-11T22:19:14.539Z,7.00
2019-03-11T22:21:44.906Z,5.57
2019-03-11T22:24:15.269Z,11.80
2019-03-11T22:26:45.755Z,8.83
2019-03-11T22:29:16.149Z,7.00
2019-03-11T22:31:46.513Z,11.57
2019-03-11T22:34:17.033Z,9.20
2019-03-11T22:36:47.431Z,8.90
2019-03-11T22:39:17.828Z,5.40
2019-03-11T22:41:52.608Z,8.97
2019-03-11T22:44:21.788Z,7.37
2019-03-11T22:46:52.157Z,6.93
2019-03-11T22:49:23.519Z,4.60
2019-03-11T22:51:53.860Z,7.17
2019-03-11T22:54:24.227Z,9.10
2019-03-11T22:56:54.608Z,24.43
2019-03-11T22:59:25.136Z,21.43
2019-03-11T23:01:56.081Z,16.63
2019-03-11T23:04:26.578Z,15.77
2019-03-11T23:06:57.063Z,25.50
2019-03-11T23:09:27.596Z,28.37
2019-03-11T23:11:58.038Z,20.60
2019-03-11T23:14:28.540Z,11.97
2019-03-11T23:17:00.098Z,15.10
2019-03-11T23:19:32.105Z,26.53
2019-03-11T23:22:02.544Z,45.63
2019-03-11T23:24:34.081Z,77.80
2019-03-11T23:27:04.988Z,60.63
2019-03-11T23:29:35.511Z,58.73
2019-03-11T23:32:06.990Z,76.80
2019-03-11T23:34:37.475Z,92.30
2019-03-11T23:37:08.773Z,66.33
2019-03-11T23:39:39.260Z,34.17
2019-03-11T23:42:09.791Z,21.87
2019-03-11T23:44:40.307Z,10.93
2019-03-11T23:47:10.727Z,6.67
2019-03-11T23:49:42.140Z,7.67
2019-03-11T23:52:12.530Z,8.20
2019-03-11T23:54:42.998Z,12.27
2019-03-11T23:57:13.478Z,7.83
2019-03-11T23:59:43.870Z,8.47
